Time;durP1;ratioP1;P1;durP2;ratioP2;P2;SDS_P1;SDS_P2;PMS_P1;PMS_P2;Temp;Humidity;BMP_temperature;BMP_pressure;BME280_temperature;BME280_humidity;BME280_pressure;Samples;Min_cycle;Max_cycle;Signal;HPM_P1;HPM_P2
2022/05/30 00:01:04;;;;;;;10.77;2.15;;;10.90;99.90;;;;;;5070516;28;20055;-73
2022/05/30 00:03:30;;;;;;;10.50;2.38;;;10.80;99.90;;;;;;5057165;28;20033;-74
2022/05/30 00:05:55;;;;;;;10.18;2.30;;;10.80;99.90;;;;;;5070353;28;20111;-74
2022/05/30 00:08:21;;;;;;;11.32;1.83;;;10.80;99.90;;;;;;5070899;28;20021;-74
2022/05/30 00:10:46;;;;;;;7.60;2.00;;;10.70;99.90;;;;;;5066927;28;20100;-74
2022/05/30 00:13:12;;;;;;;9.20;1.85;;;10.70;99.90;;;;;;5060029;28;20108;-74
2022/05/30 00:15:39;;;;;;;8.20;1.85;;;10.60;99.90;;;;;;5052201;28;20027;-74
2022/05/30 00:18:05;;;;;;;9.00;2.17;;;10.60;99.90;;;;;;5070421;28;20056;-74
2022/05/30 00:20:30;;;;;;;8.88;1.80;;;10.50;99.90;;;;;;5069762;28;20025;-74
2022/05/30 00:22:56;;;;;;;9.15;1.83;;;10.50;99.90;;;;;;5067431;28;20020;-74
2022/05/30 00:25:22;;;;;;;13.02;2.45;;;10.50;99.90;;;;;;5069994;28;20476;-74
2022/05/30 00:27:47;;;;;;;9.02;1.65;;;10.40;99.90;;;;;;5060178;28;20423;-74
2022/05/30 00:30:14;;;;;;;9.85;2.10;;;10.40;99.90;;;;;;5069772;28;20059;-74
2022/05/30 00:32:40;;;;;;;7.13;1.95;;;10.40;99.90;;;;;;5070224;28;20037;-75
2022/05/30 00:35:07;;;;;;;9.90;2.00;;;10.30;99.90;;;;;;5070054;28;20024;-74
2022/05/30 00:37:32;;;;;;;10.88;1.88;;;10.30;99.90;;;;;;5070012;28;20027;-74
2022/05/30 00:39:58;;;;;;;8.70;2.05;;;10.30;99.90;;;;;;5069844;28;20454;-74
2022/05/30 00:42:25;;;;;;;5.07;1.70;;;10.30;99.90;;;;;;5070307;28;20032;-74
2022/05/30 00:44:52;;;;;;;8.57;2.22;;;10.20;99.90;;;;;;5069768;28;20038;-74
2022/05/30 00:47:20;;;;;;;9.02;2.22;;;10.20;99.90;;;;;;5069766;28;20024;-74
2022/05/30 00:49:47;;;;;;;8.25;2.20;;;10.20;99.90;;;;;;5069607;28;20025;-74
2022/05/30 00:52:34;;;;;;;8.65;2.33;;;10.30;99.90;;;;;;5065988;28;20385;-74
2022/05/30 00:55:11;;;;;;;11.50;2.15;;;10.30;99.90;;;;;;5069675;28;20121;-75
2022/05/30 00:57:39;;;;;;;12.52;2.13;;;10.30;99.90;;;;;;5056816;28;20074;-75
2022/05/30 01:00:13;;;;;;;7.45;1.90;;;10.30;99.90;;;;;;5069751;28;20035;-74
2022/05/30 01:02:40;;;;;;;6.88;1.80;;;10.30;99.90;;;;;;5062422;28;20032;-74
2022/05/30 01:07:53;;;;;;;8.55;1.95;;;10.30;99.90;;;;;;5070215;28;20039;-74
2022/05/30 01:10:21;;;;;;;11.90;2.08;;;10.30;99.90;;;;;;5069840;28;20032;-74
2022/05/30 01:12:52;;;;;;;8.95;1.95;;;10.40;99.90;;;;;;5055805;28;20412;-75
2022/05/30 01:15:19;;;;;;;8.68;2.10;;;10.40;99.90;;;;;;5069711;28;20115;-74
2022/05/30 01:18:05;;;;;;;8.27;1.80;;;10.40;99.90;;;;;;5058447;28;20104;-74
2022/05/30 01:20:40;;;;;;;6.50;1.90;;;10.50;99.90;;;;;;5069085;28;20048;-75
2022/05/30 01:23:27;;;;;;;9.15;2.00;;;10.50;99.90;;;;;;5065587;28;20385;-74
2022/05/30 01:26:07;;;;;;;14.23;2.20;;;10.50;99.90;;;;;;5069709;28;20039;-74
2022/05/30 01:28:42;;;;;;;6.93;1.80;;;10.50;99.90;;;;;;5069600;28;20024;-74
2022/05/30 01:31:08;;;;;;;9.05;2.13;;;10.50;99.90;;;;;;5051443;28;20033;-74
2022/05/30 01:33:34;;;;;;;7.68;1.95;;;10.50;99.90;;;;;;5069472;28;20101;-74
2022/05/30 01:36:00;;;;;;;11.02;2.17;;;10.50;99.90;;;;;;5069995;28;20033;-74
2022/05/30 01:38:27;;;;;;;6.50;1.70;;;10.50;99.90;;;;;;5069098;28;20028;-74
2022/05/30 01:40:53;;;;;;;7.38;1.83;;;10.60;99.90;;;;;;5069893;28;20028;-74
2022/05/30 01:43:19;;;;;;;8.75;2.15;;;10.60;99.90;;;;;;5071171;28;20020;-74
2022/05/30 01:45:44;;;;;;;9.02;1.92;;;10.60;99.90;;;;;;5072942;28;20032;-75
2022/05/30 01:48:10;;;;;;;11.07;2.17;;;10.60;99.90;;;;;;5072408;28;20025;-74
2022/05/30 01:50:36;;;;;;;15.38;2.00;;;10.60;99.90;;;;;;5068048;28;20063;-73
2022/05/30 01:53:02;;;;;;;7.72;1.83;;;10.60;99.90;;;;;;5063758;28;20468;-74
2022/05/30 01:55:27;;;;;;;7.60;2.30;;;10.60;99.90;;;;;;5072607;28;20021;-73
2022/05/30 01:57:53;;;;;;;10.32;2.00;;;10.60;99.90;;;;;;5072656;28;20029;-73
2022/05/30 02:00:18;;;;;;;10.73;1.92;;;10.70;99.90;;;;;;5072318;28;20024;-74
2022/05/30 02:02:44;;;;;;;13.60;2.17;;;10.70;99.90;;;;;;5072280;28;20036;-74
2022/05/30 02:05:11;;;;;;;11.52;2.10;;;10.70;99.90;;;;;;5072614;28;20053;-75
2022/05/30 02:07:37;;;;;;;9.20;2.10;;;10.70;99.90;;;;;;5072213;28;20082;-75
2022/05/30 02:10:03;;;;;;;12.02;2.30;;;10.70;99.90;;;;;;5072757;28;20380;-74
2022/05/30 02:12:29;;;;;;;10.40;2.22;;;10.70;99.90;;;;;;5054179;28;20461;-74
2022/05/30 02:14:54;;;;;;;10.45;2.33;;;10.70;99.90;;;;;;5072355;28;20075;-74
2022/05/30 02:17:20;;;;;;;10.15;2.35;;;10.80;99.90;;;;;;5064496;28;20033;-75
2022/05/30 02:19:45;;;;;;;10.52;1.90;;;10.80;99.90;;;;;;5072198;28;20074;-74
2022/05/30 02:22:16;;;;;;;8.55;2.22;;;10.80;99.90;;;;;;5072290;28;20025;-73
2022/05/30 02:24:42;;;;;;;8.32;2.10;;;10.80;99.90;;;;;;5070831;28;20048;-74
2022/05/30 02:27:11;;;;;;;9.55;2.17;;;10.80;99.90;;;;;;5070624;28;20024;-75
2022/05/30 02:29:37;;;;;;;9.88;2.30;;;10.80;99.90;;;;;;5071735;28;20064;-74
2022/05/30 02:32:03;;;;;;;10.73;2.60;;;10.80;99.90;;;;;;5072121;28;20048;-74
2022/05/30 02:37:13;;;;;;;12.95;2.25;;;10.80;99.90;;;;;;5072280;28;20135;-74
2022/05/30 02:39:38;;;;;;;5.38;1.90;;;10.70;99.90;;;;;;5053717;28;20041;-73
2022/05/30 02:42:05;;;;;;;11.45;2.30;;;10.70;99.90;;;;;;5071935;28;20118;-74
2022/05/30 02:44:32;;;;;;;9.55;2.55;;;10.70;99.90;;;;;;5054220;28;20016;-74
2022/05/30 02:46:57;;;;;;;10.43;2.05;;;10.70;99.90;;;;;;5071680;28;20159;-74
2022/05/30 02:49:24;;;;;;;9.60;2.13;;;10.70;99.90;;;;;;5066449;28;20539;-73
2022/05/30 02:51:50;;;;;;;14.43;3.17;;;10.70;99.90;;;;;;5053912;28;20496;-74
2022/05/30 02:54:17;;;;;;;12.02;2.30;;;10.70;99.90;;;;;;5071682;28;20060;-72
2022/05/30 02:56:48;;;;;;;10.32;2.40;;;10.70;99.90;;;;;;5071688;28;20059;-73
2022/05/30 02:59:15;;;;;;;11.82;2.60;;;10.70;99.90;;;;;;5071333;28;20029;-74
2022/05/30 03:01:40;;;;;;;8.80;2.53;;;10.70;99.90;;;;;;5071843;28;20043;-75
2022/05/30 03:04:06;;;;;;;11.10;2.55;;;10.70;99.90;;;;;;5071423;28;20388;-73
2022/05/30 03:06:32;;;;;;;10.50;2.58;;;10.70;99.90;;;;;;5053389;28;20036;-75
2022/05/30 03:08:57;;;;;;;7.75;1.98;;;10.70;99.90;;;;;;5071211;28;20043;-75
2022/05/30 03:11:23;;;;;;;9.85;1.77;;;10.70;99.90;;;;;;5071243;28;20423;-75
2022/05/30 03:13:49;;;;;;;7.30;1.67;;;10.60;99.90;;;;;;5070898;28;20091;-74
2022/05/30 03:16:15;;;;;;;6.63;1.73;;;10.50;99.90;;;;;;5070900;28;20046;-74
2022/05/30 03:18:41;;;;;;;11.20;2.20;;;10.50;99.90;;;;;;5070718;28;22501;-74
2022/05/30 03:21:07;;;;;;;7.88;1.88;;;10.50;99.90;;;;;;5071045;28;20557;-74
2022/05/30 03:23:33;;;;;;;8.23;2.08;;;10.60;99.90;;;;;;5067750;28;20499;-74
2022/05/30 03:25:58;;;;;;;5.32;1.92;;;10.60;99.90;;;;;;5070848;28;20332;-72
2022/05/30 03:28:24;;;;;;;10.77;2.38;;;10.60;99.90;;;;;;5070578;28;20024;-73
2022/05/30 03:30:50;;;;;;;7.78;2.05;;;10.60;99.90;;;;;;5071200;28;20485;-74
2022/05/30 03:33:16;;;;;;;9.18;1.83;;;10.60;99.90;;;;;;5070203;28;20115;-74
2022/05/30 03:35:42;;;;;;;8.60;2.10;;;10.60;99.90;;;;;;5071101;28;20025;-74
2022/05/30 03:38:09;;;;;;;7.05;2.17;;;10.60;99.90;;;;;;5071013;28;20021;-74
2022/05/30 03:40:38;;;;;;;9.88;2.17;;;10.60;99.90;;;;;;5070239;28;20029;-75
2022/05/30 03:43:09;;;;;;;10.43;2.20;;;10.50;99.90;;;;;;5068198;28;20452;-75
2022/05/30 03:45:42;;;;;;;9.40;2.20;;;10.50;99.90;;;;;;5070517;28;20074;-75
2022/05/30 03:48:10;;;;;;;9.95;2.10;;;10.50;99.90;;;;;;5070496;28;20028;-73
2022/05/30 03:50:38;;;;;;;7.80;2.00;;;10.40;99.90;;;;;;5070559;28;20060;-74
2022/05/30 03:53:07;;;;;;;12.52;2.55;;;10.40;99.90;;;;;;5070797;28;20023;-74
2022/05/30 03:55:41;;;;;;;7.53;2.88;;;10.40;99.90;;;;;;5070034;28;20157;-74
2022/05/30 03:58:09;;;;;;;10.75;3.13;;;10.30;99.90;;;;;;5068999;28;20020;-74
2022/05/30 04:00:35;;;;;;;10.15;2.85;;;10.30;99.90;;;;;;5044502;28;20079;-74
2022/05/30 04:03:02;;;;;;;12.32;3.35;;;10.20;99.90;;;;;;5055900;28;20033;-74
2022/05/30 04:05:27;;;;;;;6.82;2.67;;;10.20;99.90;;;;;;5050018;28;20480;-75
2022/05/30 04:07:53;;;;;;;10.38;2.95;;;10.10;99.90;;;;;;5058628;28;20042;-74
2022/05/30 04:10:20;;;;;;;13.43;3.22;;;10.10;99.90;;;;;;5070411;28;20078;-74
2022/05/30 04:12:45;;;;;;;11.18;2.60;;;10.00;99.90;;;;;;5070687;28;20028;-74
2022/05/30 04:15:21;;;;;;;12.10;2.95;;;10.00;99.90;;;;;;5070346;28;20052;-74
2022/05/30 04:17:47;;;;;;;7.50;2.63;;;10.00;99.90;;;;;;5052523;28;20329;-73
2022/05/30 04:20:12;;;;;;;13.73;3.67;;;9.90;99.90;;;;;;5069050;28;20478;-73
2022/05/30 04:22:38;;;;;;;8.20;3.10;;;9.90;99.90;;;;;;5070476;28;20020;-72
2022/05/30 04:25:04;;;;;;;13.93;2.90;;;9.90;99.90;;;;;;5069991;28;20040;-73
2022/05/30 04:27:30;;;;;;;9.27;2.95;;;9.90;99.90;;;;;;5069486;28;20025;-73
2022/05/30 04:29:55;;;;;;;9.57;3.10;;;9.90;99.90;;;;;;5058129;28;20029;-74
2022/05/30 04:32:22;;;;;;;14.30;3.30;;;9.90;99.90;;;;;;5056609;28;20029;-75
2022/05/30 04:34:48;;;;;;;9.80;3.30;;;9.90;99.90;;;;;;5034403;28;20104;-73
2022/05/30 04:37:14;;;;;;;12.82;3.40;;;9.90;99.90;;;;;;5068042;28;20091;-73
2022/05/30 04:39:39;;;;;;;10.05;2.92;;;9.90;99.90;;;;;;5070764;28;20040;-73
2022/05/30 04:42:05;;;;;;;8.90;2.55;;;9.90;99.90;;;;;;5068017;28;20113;-72
2022/05/30 04:44:31;;;;;;;10.52;3.10;;;9.90;99.90;;;;;;5061571;28;20078;-74
2022/05/30 04:46:58;;;;;;;11.40;2.40;;;9.90;99.90;;;;;;5046823;28;20024;-73
2022/05/30 04:49:25;;;;;;;7.85;2.35;;;9.90;99.90;;;;;;5041047;28;20104;-74
2022/05/30 04:51:51;;;;;;;6.60;2.15;;;9.90;99.90;;;;;;5052764;28;20059;-73
2022/05/30 04:54:18;;;;;;;10.00;2.75;;;9.90;99.90;;;;;;5051978;28;20094;-73
2022/05/30 04:56:43;;;;;;;10.48;2.70;;;9.90;99.90;;;;;;5053201;28;20024;-73
2022/05/30 04:59:10;;;;;;;12.90;2.65;;;9.90;99.90;;;;;;5057932;28;20484;-74
2022/05/30 05:01:36;;;;;;;12.95;2.85;;;9.90;99.90;;;;;;5062605;28;20020;-74
2022/05/30 05:04:07;;;;;;;7.85;2.60;;;9.90;99.90;;;;;;5066660;28;20021;-74
2022/05/30 05:06:32;;;;;;;10.70;2.25;;;10.00;99.90;;;;;;5059676;28;20535;-73
2022/05/30 05:09:05;;;;;;;10.88;2.72;;;10.00;99.90;;;;;;5063303;28;20104;-73
2022/05/30 05:11:33;;;;;;;6.75;2.20;;;10.00;99.90;;;;;;5056109;28;20021;-73
2022/05/30 05:13:59;;;;;;;11.70;2.55;;;10.00;99.90;;;;;;5061250;28;20044;-73
2022/05/30 05:16:27;;;;;;;11.63;2.10;;;10.00;99.90;;;;;;5062072;28;20061;-73
2022/05/30 05:18:53;;;;;;;9.27;2.00;;;10.00;99.90;;;;;;5046958;28;20055;-74
2022/05/30 05:21:25;;;;;;;8.07;2.28;;;10.00;99.90;;;;;;5065561;28;20036;-73
2022/05/30 05:23:50;;;;;;;10.65;2.58;;;10.00;99.90;;;;;;5066498;28;20492;-74
2022/05/30 05:26:17;;;;;;;9.32;2.10;;;10.10;99.90;;;;;;5061258;28;20040;-73
2022/05/30 05:28:43;;;;;;;7.20;2.08;;;10.10;99.90;;;;;;5066214;28;20032;-74
2022/05/30 05:31:12;;;;;;;11.35;2.10;;;10.10;99.90;;;;;;5056434;28;20467;-74
2022/05/30 05:33:37;;;;;;;13.45;1.92;;;10.10;99.90;;;;;;5068888;28;20043;-74
2022/05/30 05:36:04;;;;;;;7.43;1.73;;;10.10;99.90;;;;;;5068178;28;20021;-74
2022/05/30 05:38:29;;;;;;;12.35;2.00;;;10.20;99.90;;;;;;5070443;28;20024;-73
2022/05/30 05:40:55;;;;;;;6.63;1.63;;;10.20;99.90;;;;;;5061137;28;20408;-74
2022/05/30 05:43:20;;;;;;;8.48;1.77;;;10.20;99.90;;;;;;5056059;28;20744;-72
2022/05/30 05:45:46;;;;;;;10.50;1.77;;;10.30;99.90;;;;;;5059822;28;20145;-73
2022/05/30 05:48:13;;;;;;;8.15;1.50;;;10.30;99.90;;;;;;5063593;28;20369;-74
2022/05/30 05:50:40;;;;;;;9.32;1.50;;;10.30;99.90;;;;;;5064854;28;20462;-74
2022/05/30 05:53:06;;;;;;;8.88;1.67;;;10.30;99.90;;;;;;5063355;28;20036;-74
2022/05/30 05:55:33;;;;;;;6.25;1.38;;;10.40;99.90;;;;;;5072953;28;20032;-73
2022/05/30 05:57:58;;;;;;;6.78;1.60;;;10.40;99.90;;;;;;5073408;28;20475;-74
2022/05/30 06:00:24;;;;;;;7.13;1.50;;;10.50;99.90;;;;;;5071017;28;20067;-72
2022/05/30 06:02:49;;;;;;;8.77;1.40;;;10.50;99.90;;;;;;5073288;28;20043;-72
2022/05/30 06:05:15;;;;;;;8.65;1.80;;;10.50;99.90;;;;;;5073574;28;20028;-72
2022/05/30 06:07:42;;;;;;;8.85;2.28;;;10.50;99.90;;;;;;5073512;28;20035;-73
2022/05/30 06:10:12;;;;;;;7.25;1.55;;;10.60;99.90;;;;;;5062930;28;20116;-72
2022/05/30 06:12:42;;;;;;;6.15;1.45;;;10.60;99.90;;;;;;5065983;28;20041;-74
2022/05/30 06:15:12;;;;;;;7.50;1.70;;;10.60;99.90;;;;;;5066398;28;20107;-72
2022/05/30 06:17:39;;;;;;;5.07;1.30;;;10.70;99.90;;;;;;5069634;28;20053;-72
2022/05/30 06:20:05;;;;;;;7.90;1.70;;;10.70;99.90;;;;;;5071059;28;20025;-72
2022/05/30 06:22:31;;;;;;;5.95;1.38;;;10.80;99.90;;;;;;5068011;28;20502;-73
2022/05/30 06:24:56;;;;;;;7.38;1.63;;;10.80;99.90;;;;;;5060113;28;20064;-72
2022/05/30 06:27:22;;;;;;;6.75;1.52;;;10.90;99.90;;;;;;5072084;28;20550;-72
2022/05/30 06:29:49;;;;;;;8.50;1.67;;;11.00;99.90;;;;;;5072023;28;20020;-72
2022/05/30 06:32:14;;;;;;;7.25;1.60;;;11.10;99.90;;;;;;5055659;28;20025;-72
2022/05/30 06:34:40;;;;;;;4.45;1.30;;;11.20;99.90;;;;;;5056076;28;20021;-72
2022/05/30 06:37:08;;;;;;;7.40;1.52;;;11.40;99.90;;;;;;5070432;28;20339;-72
2022/05/30 06:39:34;;;;;;;6.15;1.63;;;11.60;99.90;;;;;;5054195;28;20515;-71
2022/05/30 06:41:59;;;;;;;6.75;1.17;;;11.80;99.90;;;;;;5057879;28;20032;-71
2022/05/30 06:44:25;;;;;;;7.68;1.25;;;12.00;99.90;;;;;;5056798;28;20151;-72
2022/05/30 06:46:50;;;;;;;8.95;1.52;;;12.10;99.90;;;;;;5055003;28;20264;-71
2022/05/30 06:49:16;;;;;;;8.90;1.20;;;12.20;99.90;;;;;;5050123;28;20073;-71
2022/05/30 06:51:42;;;;;;;5.13;1.10;;;12.30;99.90;;;;;;5064325;28;20016;-71
2022/05/30 06:54:08;;;;;;;4.47;1.00;;;12.30;99.90;;;;;;5071387;28;20016;-71
2022/05/30 06:56:37;;;;;;;4.22;0.80;;;12.20;99.90;;;;;;5059639;28;20087;-71
2022/05/30 06:59:03;;;;;;;4.13;1.08;;;12.20;99.90;;;;;;5034338;28;20115;-72
2022/05/30 07:01:34;;;;;;;2.92;0.88;;;12.10;99.90;;;;;;5036460;28;20109;-72
2022/05/30 07:04:00;;;;;;;5.65;0.80;;;12.10;99.90;;;;;;5056536;28;20036;-71
2022/05/30 07:06:28;;;;;;;2.92;0.77;;;12.00;99.90;;;;;;5054058;28;20025;-72
2022/05/30 07:08:55;;;;;;;4.22;1.00;;;12.00;99.90;;;;;;5053504;28;20021;-72
2022/05/30 07:11:22;;;;;;;2.53;0.90;;;12.00;99.90;;;;;;5056257;28;20033;-72
2022/05/30 07:13:48;;;;;;;6.30;1.20;;;12.00;99.90;;;;;;5051756;28;20025;-72
2022/05/30 07:16:14;;;;;;;6.88;1.02;;;12.00;99.90;;;;;;5052303;28;20025;-71
2022/05/30 07:18:40;;;;;;;1.52;0.70;;;12.00;99.90;;;;;;5052952;28;20055;-72
2022/05/30 07:21:09;;;;;;;5.05;0.88;;;12.00;99.90;;;;;;5057588;28;20456;-74
2022/05/30 07:23:36;;;;;;;4.57;1.00;;;12.10;99.90;;;;;;5055848;28;20016;-72
2022/05/30 07:26:19;;;;;;;7.18;1.05;;;12.10;99.90;;;;;;5053882;28;20075;-72
2022/05/30 07:28:45;;;;;;;3.25;1.13;;;12.10;99.90;;;;;;5055012;28;20060;-72
2022/05/30 07:31:15;;;;;;;5.65;0.95;;;12.20;99.90;;;;;;5053991;28;20488;-71
2022/05/30 07:33:43;;;;;;;5.43;1.17;;;12.20;99.90;;;;;;5054618;28;20033;-72
2022/05/30 07:36:16;;;;;;;3.67;1.00;;;12.30;99.90;;;;;;5051702;28;20028;-71
2022/05/30 07:38:42;;;;;;;3.83;1.10;;;12.30;99.90;;;;;;5051983;28;20029;-71
2022/05/30 07:41:08;;;;;;;8.38;1.30;;;12.30;99.90;;;;;;5053464;28;20090;-70
2022/05/30 07:43:35;;;;;;;4.63;0.98;;;12.40;99.90;;;;;;5062632;28;20104;-71
2022/05/30 07:46:05;;;;;;;4.40;1.27;;;12.40;99.90;;;;;;5051217;28;20033;-72
2022/05/30 07:48:31;;;;;;;2.67;0.80;;;12.40;99.90;;;;;;5051678;28;20029;-72
2022/05/30 07:50:58;;;;;;;5.55;1.35;;;12.40;99.90;;;;;;5053093;28;20028;-72
2022/05/30 07:53:25;;;;;;;5.97;1.00;;;12.40;99.90;;;;;;5070452;28;20027;-72
2022/05/30 07:55:51;;;;;;;9.32;1.10;;;12.40;99.90;;;;;;5070286;28;20020;-72
2022/05/30 07:58:16;;;;;;;8.95;1.10;;;12.50;99.90;;;;;;5070444;28;20024;-73
2022/05/30 08:00:42;;;;;;;3.58;1.00;;;12.60;99.90;;;;;;5070081;28;20032;-73
2022/05/30 08:03:11;;;;;;;7.50;1.00;;;12.70;99.90;;;;;;5055091;28;20118;-73
2022/05/30 08:05:39;;;;;;;3.47;0.98;;;12.90;99.90;;;;;;5053561;28;20028;-72
2022/05/30 08:08:06;;;;;;;4.70;1.17;;;12.90;99.90;;;;;;5052046;28;20021;-72
2022/05/30 08:10:31;;;;;;;4.10;0.93;;;12.90;99.90;;;;;;5053421;28;20029;-72
2022/05/30 08:12:57;;;;;;;3.40;0.90;;;13.00;99.90;;;;;;5057292;28;20094;-72
2022/05/30 08:15:23;;;;;;;5.85;1.00;;;13.30;99.90;;;;;;5034951;28;20047;-72
2022/05/30 08:17:54;;;;;;;3.50;1.05;;;13.50;99.90;;;;;;5050698;28;20037;-73
2022/05/30 08:20:20;;;;;;;6.45;1.25;;;13.70;99.90;;;;;;5042479;28;20036;-73
2022/05/30 08:22:45;;;;;;;8.00;0.98;;;13.90;99.90;;;;;;5068325;28;20103;-72
2022/05/30 08:25:14;;;;;;;4.72;0.93;;;14.10;99.90;;;;;;5070144;28;20461;-72
2022/05/30 08:27:42;;;;;;;8.07;1.10;;;14.30;99.90;;;;;;5069969;28;20040;-72
2022/05/30 08:30:10;;;;;;;2.95;0.70;;;14.30;99.90;;;;;;5056321;28;20039;-73
2022/05/30 08:32:38;;;;;;;4.65;0.98;;;14.40;99.90;;;;;;5051396;28;20047;-73
2022/05/30 08:35:04;;;;;;;8.00;1.20;;;14.40;99.90;;;;;;5034754;28;20028;-72
2022/05/30 08:37:32;;;;;;;5.38;1.10;;;14.50;99.90;;;;;;5052582;28;20070;-73
2022/05/30 08:42:50;;;;;;;7.70;1.42;;;14.50;99.90;;;;;;5052186;28;20108;-72
2022/05/30 08:45:20;;;;;;;3.60;1.10;;;14.60;99.90;;;;;;5052640;28;20017;-73
2022/05/30 08:47:46;;;;;;;6.57;1.15;;;14.70;99.90;;;;;;5051214;28;20079;-72
2022/05/30 08:50:27;;;;;;;7.05;1.10;;;14.80;99.90;;;;;;5050630;28;20033;-73
2022/05/30 08:53:35;;;;;;;2.80;0.90;;;14.90;99.90;;;;;;5053513;28;20103;-72
2022/05/30 08:56:29;;;;;;;4.63;0.95;;;14.90;99.90;;;;;;5056357;28;20081;-71
2022/05/30 08:59:13;;;;;;;5.97;1.10;;;15.00;99.90;;;;;;5069957;28;20036;-73
2022/05/30 09:01:45;;;;;;;3.88;0.80;;;14.90;99.90;;;;;;5074169;28;20029;-72
2022/05/30 09:04:36;;;;;;;5.03;0.80;;;14.90;99.90;;;;;;5073585;28;20107;-72
2022/05/30 09:07:10;;;;;;;2.75;0.90;;;15.00;99.90;;;;;;5073791;28;20044;-70
2022/05/30 09:10:09;;;;;;;2.75;0.80;;;15.00;99.90;;;;;;5050556;28;20104;-70
2022/05/30 09:12:59;;;;;;;3.83;0.90;;;15.10;99.90;;;;;;5056779;28;20119;-72
2022/05/30 09:15:35;;;;;;;5.40;1.02;;;15.10;99.90;;;;;;5055480;28;20024;-71
2022/05/30 09:18:00;;;;;;;;;;;15.10;99.90;;;;;;5066578;28;20041;-71
2022/05/30 09:20:28;;;;;;;3.97;0.90;;;15.10;99.90;;;;;;5058411;28;19966;-72
2022/05/30 09:22:54;;;;;;;7.78;1.00;;;15.10;99.90;;;;;;5055102;28;20047;-71
2022/05/30 09:28:11;;;;;;;5.53;1.10;;;14.80;99.90;;;;;;5069493;28;20032;-71
2022/05/30 09:31:00;;;;;;;4.03;1.10;;;14.70;99.90;;;;;;5064695;28;20032;-71
2022/05/30 09:33:33;;;;;;;2.70;0.80;;;14.70;99.90;;;;;;5059237;28;20025;-72
2022/05/30 09:36:20;;;;;;;2.92;0.80;;;14.70;99.90;;;;;;5054765;28;20491;-71
2022/05/30 09:39:04;;;;;;;3.22;0.93;;;14.70;99.90;;;;;;5057314;28;20031;-71
2022/05/30 09:41:56;;;;;;;5.22;0.90;;;14.60;99.90;;;;;;5072987;28;20040;-74
2022/05/30 09:44:41;;;;;;;5.32;1.10;;;14.50;99.90;;;;;;5072743;28;20391;-72
2022/05/30 09:47:15;;;;;;;4.22;1.05;;;14.50;99.90;;;;;;5072922;28;20032;-72
2022/05/30 09:49:49;;;;;;;5.07;1.08;;;14.40;99.90;;;;;;5070026;28;20024;-72
2022/05/30 09:52:33;;;;;;;3.53;0.83;;;14.40;99.90;;;;;;5055836;28;20033;-73
2022/05/30 09:55:20;;;;;;;3.45;0.70;;;14.30;99.90;;;;;;5061016;28;20042;-72
2022/05/30 09:57:46;;;;;;;5.93;1.20;;;14.30;99.90;;;;;;5046833;28;20021;-74
2022/05/30 10:00:20;;;;;;;3.13;0.90;;;14.30;99.90;;;;;;5053881;28;20112;-72
2022/05/30 10:02:59;;;;;;;7.20;1.20;;;14.30;99.90;;;;;;5055171;28;20040;-71
2022/05/30 10:05:28;;;;;;;4.38;0.90;;;14.20;99.90;;;;;;5034209;28;20025;-72
2022/05/30 10:07:59;;;;;;;3.45;0.93;;;14.20;99.90;;;;;;5058849;28;20017;-72
2022/05/30 10:10:47;;;;;;;6.63;1.15;;;14.20;99.90;;;;;;5052753;28;20031;-74
2022/05/30 10:13:13;;;;;;;4.65;1.10;;;14.20;99.90;;;;;;5064663;28;20041;-73
2022/05/30 10:15:42;;;;;;;3.53;0.88;;;14.20;99.90;;;;;;5072204;28;20021;-72
2022/05/30 10:18:14;;;;;;;4.80;1.10;;;14.20;99.90;;;;;;5072658;28;20090;-72
2022/05/30 10:21:03;;;;;;;5.47;1.00;;;14.20;99.90;;;;;;5064538;28;20029;-72
2022/05/30 10:30:11;;;;;;;5.85;1.10;;;14.40;99.90;;;;;;5070692;28;20511;-73
2022/05/30 10:32:52;;;;;;;3.58;0.90;;;14.60;99.90;;;;;;5071738;28;20032;-73
2022/05/30 10:35:34;;;;;;;4.28;0.90;;;14.70;99.90;;;;;;5070325;28;20052;-73
2022/05/30 10:38:32;;;;;;;3.63;0.77;;;14.80;99.90;;;;;;5071797;28;20036;-73
2022/05/30 10:40:58;;;;;;;7.93;1.10;;;14.90;99.90;;;;;;5026565;28;20130;-73
2022/05/30 10:43:41;;;;;;;5.18;1.13;;;15.00;99.90;;;;;;5071592;28;20044;-73
2022/05/30 10:46:11;;;;;;;5.35;0.90;;;15.00;99.90;;;;;;5071899;28;20116;-73
2022/05/30 10:48:54;;;;;;;3.72;0.90;;;15.00;99.90;;;;;;5071647;28;20032;-73
2022/05/30 10:51:28;;;;;;;4.60;0.90;;;15.00;99.90;;;;;;5071475;28;20028;-72
2022/05/30 10:54:10;;;;;;;3.33;0.80;;;15.00;99.90;;;;;;5072103;28;20041;-74
2022/05/30 10:56:49;;;;;;;5.30;0.80;;;15.00;99.90;;;;;;5071588;28;20081;-73
2022/05/30 10:59:47;;;;;;;4.03;0.90;;;14.80;99.90;;;;;;5052928;28;20024;-73
2022/05/30 11:02:15;;;;;;;4.70;0.90;;;14.70;99.90;;;;;;5051885;28;20149;-73
2022/05/30 11:04:45;;;;;;;5.20;0.98;;;14.70;99.90;;;;;;5049128;28;20020;-73
2022/05/30 11:07:32;;;;;;;4.57;0.95;;;14.80;99.90;;;;;;5052300;28;20036;-73
2022/05/30 11:10:23;;;;;;;4.95;1.17;;;14.70;99.90;;;;;;5055630;28;20525;-73
2022/05/30 11:13:09;;;;;;;5.50;1.02;;;14.70;99.90;;;;;;5055674;28;20159;-73
2022/05/30 11:15:49;;;;;;;4.38;0.95;;;14.60;99.90;;;;;;5054970;28;20043;-73
2022/05/30 11:18:20;;;;;;;4.20;1.08;;;14.70;99.90;;;;;;5055144;28;20049;-73
2022/05/30 11:21:04;;;;;;;5.00;1.25;;;14.70;99.90;;;;;;5054147;28;20598;-73
2022/05/30 11:23:30;;;;;;;6.07;1.40;;;14.70;99.90;;;;;;5052699;28;20036;-73
2022/05/30 11:26:22;;;;;;;4.75;1.00;;;14.80;99.90;;;;;;5057120;28;20469;-73
2022/05/30 11:29:19;;;;;;;3.92;0.90;;;14.90;99.90;;;;;;5036102;28;20626;-73
2022/05/30 11:31:45;;;;;;;4.78;1.20;;;15.00;99.90;;;;;;5034742;28;20029;-73
2022/05/30 11:34:37;;;;;;;4.22;1.15;;;15.10;99.90;;;;;;5054094;28;20378;-73
2022/05/30 11:37:12;;;;;;;5.78;1.05;;;15.20;99.90;;;;;;5055945;28;20213;-74
2022/05/30 11:40:10;;;;;;;3.85;1.25;;;15.40;99.90;;;;;;5049184;28;20044;-73
2022/05/30 11:43:03;;;;;;;4.07;1.00;;;15.60;99.90;;;;;;5055510;28;20473;-75
2022/05/30 11:45:47;;;;;;;5.03;0.95;;;15.90;99.90;;;;;;5056188;28;20102;-74
2022/05/30 11:48:48;;;;;;;4.15;1.30;;;16.30;99.90;;;;;;5057159;28;20670;-76
2022/05/30 11:51:36;;;;;;;2.88;0.80;;;16.60;99.90;;;;;;5020332;28;20059;-74
2022/05/30 11:54:14;;;;;;;5.93;1.05;;;16.70;99.90;;;;;;5053502;28;20028;-72
2022/05/30 11:56:59;;;;;;;4.25;1.00;;;16.80;99.10;;;;;;5063084;28;20028;-73
2022/05/30 11:59:35;;;;;;;5.57;1.35;;;16.90;99.10;;;;;;5058574;28;20025;-72
2022/05/30 12:02:06;;;;;;;2.25;1.10;;;17.20;99.10;;;;;;5064906;28;20048;-73
2022/05/30 12:05:26;;;;;;;4.53;1.15;;;17.50;98.20;;;;;;5053253;28;20035;-73
2022/05/30 12:07:57;;;;;;;5.88;1.30;;;17.70;95.90;;;;;;4967964;28;20041;-73
2022/05/30 12:10:49;;;;;;;3.97;1.20;;;17.60;94.90;;;;;;4968103;28;20047;-74
2022/05/30 12:13:29;;;;;;;4.53;1.50;;;17.60;94.50;;;;;;4965225;28;20030;-72
2022/05/30 12:16:11;;;;;;;4.43;1.23;;;17.60;94.40;;;;;;4966830;28;20475;-72
2022/05/30 12:24:31;;;;;;;3.72;1.25;;;17.50;92.20;;;;;;4966329;28;20554;-72
2022/05/30 12:27:03;;;;;;;3.53;1.00;;;17.30;92.00;;;;;;4966856;28;20065;-73
2022/05/30 12:29:45;;;;;;;4.25;1.00;;;17.30;91.90;;;;;;4959373;28;20035;-73
2022/05/30 12:32:24;;;;;;;4.43;1.25;;;17.30;91.30;;;;;;4967792;28;20026;-72
2022/05/30 12:35:00;;;;;;;5.35;1.15;;;17.10;90.50;;;;;;4966287;28;20057;-72
2022/05/30 12:37:46;;;;;;;3.85;1.17;;;17.00;90.50;;;;;;4965795;28;20022;-72
2022/05/30 12:40:24;;;;;;;3.42;1.23;;;16.80;90.00;;;;;;4965790;28;20031;-72
2022/05/30 12:43:23;;;;;;;3.22;1.20;;;16.70;90.40;;;;;;5048226;28;20522;-72
2022/05/30 12:45:54;;;;;;;5.72;1.17;;;16.60;90.50;;;;;;5062938;28;20033;-74
2022/05/30 12:48:45;;;;;;;3.28;1.00;;;16.60;90.90;;;;;;5055988;28;20167;-74
2022/05/30 12:51:11;;;;;;;4.68;1.30;;;16.60;90.60;;;;;;5062951;28;20499;-74
2022/05/30 12:53:57;;;;;;;4.15;1.08;;;16.50;91.70;;;;;;5068399;28;20418;-73
2022/05/30 12:56:38;;;;;;;5.85;1.33;;;16.60;91.90;;;;;;5067877;28;20025;-73
2022/05/30 12:59:03;;;;;;;3.83;1.00;;;16.70;91.80;;;;;;5064037;28;20388;-76
2022/05/30 13:01:51;;;;;;;5.50;1.30;;;16.70;91.90;;;;;;5068708;28;20115;-73
2022/05/30 13:04:19;;;;;;;5.68;1.10;;;16.80;91.70;;;;;;5061472;28;20021;-73
2022/05/30 13:06:57;;;;;;;2.47;1.00;;;16.90;91.60;;;;;;5061005;28;20112;-74
2022/05/30 13:09:25;;;;;;;3.75;0.80;;;17.10;90.70;;;;;;5066271;28;20726;-73
2022/05/30 13:12:17;;;;;;;4.57;1.10;;;17.30;91.20;;;;;;5057516;28;20067;-73
2022/05/30 13:15:01;;;;;;;5.22;1.08;;;17.60;90.50;;;;;;5065932;28;20514;-74
2022/05/30 13:17:53;;;;;;;3.55;1.10;;;18.00;90.00;;;;;;5060215;28;20049;-74
2022/05/30 13:20:23;;;;;;;9.95;1.30;;;18.40;88.20;;;;;;5067690;28;20437;-74
2022/05/30 13:22:55;;;;;;;6.57;1.25;;;18.70;86.10;;;;;;5062291;28;20481;-73
2022/05/30 13:25:28;;;;;;;5.57;1.00;;;18.80;82.50;;;;;;5067272;28;20028;-75
2022/05/30 13:27:55;;;;;;;4.40;1.25;;;18.80;79.90;;;;;;5064047;28;20036;-74
2022/05/30 13:30:25;;;;;;;5.05;1.13;;;18.70;77.40;;;;;;5070335;28;20380;-74